Time;durP1;ratioP1;P1;durP2;ratioP2;P2;SDS_P1;SDS_P2;PMS_P1;PMS_P2;Temp;Humidity;BMP_temperature;BMP_pressure;BME280_temperature;BME280_humidity;BME280_pressure;Samples;Min_cycle;Max_cycle;Signal;HPM_P1;HPM_P2
2023/12/25 00:02:17;;;;;;;11.85;3.35;;;12.60;99.90;;;;;;5044856;28;20106;-76
2023/12/25 00:04:42;;;;;;;10.27;2.97;;;12.70;99.90;;;;;;5043593;28;20516;-77
2023/12/25 00:07:10;;;;;;;14.48;3.50;;;12.70;99.90;;;;;;5043605;28;20072;-76
2023/12/25 00:09:36;;;;;;;;;;;12.70;99.90;;;;;;5047755;28;20037;-77
2023/12/25 00:12:01;;;;;;;15.52;3.88;;;12.70;99.90;;;;;;5046828;28;19967;-77
2023/12/25 00:14:27;;;;;;;13.02;3.75;;;12.70;99.90;;;;;;5041471;28;20041;-77
2023/12/25 00:16:53;;;;;;;15.15;4.35;;;12.70;99.90;;;;;;5040731;28;20476;-76
2023/12/25 00:19:18;;;;;;;13.52;4.07;;;12.60;99.90;;;;;;5038087;28;20064;-77
2023/12/25 00:21:44;;;;;;;15.50;3.05;;;12.60;99.90;;;;;;5048763;28;20087;-77
2023/12/25 00:24:10;;;;;;;12.60;3.22;;;12.60;99.90;;;;;;5044705;28;20579;-76
2023/12/25 00:26:35;;;;;;;14.02;3.13;;;12.60;99.90;;;;;;5044844;28;20052;-76
2023/12/25 00:29:01;;;;;;;11.57;2.88;;;12.60;99.90;;;;;;5046921;28;20119;-76
2023/12/25 00:31:27;;;;;;;13.68;3.47;;;12.60;99.90;;;;;;5040886;28;20477;-76
2023/12/25 00:33:53;;;;;;;16.30;3.83;;;12.60;99.90;;;;;;5046616;28;20451;-76
2023/12/25 00:36:19;;;;;;;14.15;3.65;;;12.60;99.90;;;;;;5035458;28;20040;-76
2023/12/25 00:38:45;;;;;;;14.98;3.97;;;12.50;99.90;;;;;;5046081;28;20056;-76
2023/12/25 00:41:10;;;;;;;12.27;3.30;;;12.50;99.90;;;;;;5046622;28;20056;-76
2023/12/25 00:43:36;;;;;;;12.93;3.30;;;12.50;99.90;;;;;;5046124;28;20048;-76
2023/12/25 00:46:06;;;;;;;14.45;3.50;;;12.50;99.90;;;;;;5045485;28;20048;-76
2023/12/25 00:48:31;;;;;;;16.50;3.55;;;12.50;99.90;;;;;;5047208;28;20472;-76
2023/12/25 00:50:57;;;;;;;10.95;1.90;;;12.50;99.90;;;;;;5042061;28;20046;-76
2023/12/25 00:53:22;;;;;;;16.65;3.70;;;12.50;99.90;;;;;;5047300;28;20060;-76
2023/12/25 00:55:49;;;;;;;12.55;3.05;;;12.40;99.90;;;;;;5042378;28;20045;-76
2023/12/25 00:58:14;;;;;;;16.48;3.90;;;12.40;99.90;;;;;;5046179;28;20117;-76
2023/12/25 01:00:40;;;;;;;16.08;3.97;;;12.30;99.90;;;;;;5045402;28;20132;-76
2023/12/25 01:03:05;;;;;;;12.35;3.10;;;12.30;99.90;;;;;;5042379;28;20347;-76
2023/12/25 01:05:31;;;;;;;15.95;3.83;;;12.30;99.90;;;;;;5045065;28;20037;-76
2023/12/25 01:07:57;;;;;;;16.75;3.30;;;12.20;99.90;;;;;;5045593;28;20127;-76
2023/12/25 01:10:22;;;;;;;14.45;3.40;;;12.20;99.90;;;;;;5043385;28;20253;-76
2023/12/25 01:12:48;;;;;;;11.73;3.00;;;12.20;99.90;;;;;;5044742;28;20045;-76
2023/12/25 01:15:13;;;;;;;14.10;3.63;;;12.10;99.90;;;;;;5041259;28;20159;-76
2023/12/25 01:17:39;;;;;;;12.63;3.03;;;12.10;99.90;;;;;;5046447;28;20045;-76
2023/12/25 01:20:05;;;;;;;13.30;3.30;;;12.00;99.90;;;;;;5047335;28;20138;-75
2023/12/25 01:22:31;;;;;;;14.48;3.30;;;12.00;99.90;;;;;;5047845;28;20052;-76
2023/12/25 01:24:56;;;;;;;14.65;3.50;;;12.00;99.90;;;;;;5050470;28;20560;-76
2023/12/25 01:27:22;;;;;;;11.13;3.47;;;12.00;99.90;;;;;;5049030;28;20041;-76
2023/12/25 01:29:48;;;;;;;13.32;3.25;;;12.00;99.90;;;;;;5044700;28;20049;-75
2023/12/25 01:32:13;;;;;;;14.20;3.75;;;12.00;99.90;;;;;;5048145;28;20550;-75
2023/12/25 01:34:39;;;;;;;14.98;3.80;;;12.00;99.90;;;;;;5045705;28;20049;-76
2023/12/25 01:37:04;;;;;;;16.05;3.55;;;12.00;99.90;;;;;;5048661;28;20606;-76
2023/12/25 01:39:30;;;;;;;13.38;3.75;;;12.00;99.90;;;;;;5053033;28;20045;-75
2023/12/25 01:41:56;;;;;;;19.17;3.72;;;12.00;99.90;;;;;;5048892;28;20822;-76
2023/12/25 01:44:21;;;;;;;16.75;3.97;;;12.00;99.90;;;;;;5050997;28;20053;-76
2023/12/25 01:46:47;;;;;;;13.88;3.78;;;11.90;99.90;;;;;;5051289;28;20080;-75
2023/12/25 01:49:13;;;;;;;14.65;3.63;;;11.90;99.90;;;;;;5048921;28;20061;-76
2023/12/25 01:51:38;;;;;;;15.23;3.65;;;11.90;99.90;;;;;;5040935;28;20403;-76
2023/12/25 01:54:06;;;;;;;13.68;3.40;;;12.00;99.90;;;;;;5047463;28;20095;-76
2023/12/25 01:56:32;;;;;;;13.20;3.70;;;11.90;99.90;;;;;;5046072;28;20155;-76
2023/12/25 01:58:58;;;;;;;15.20;3.47;;;11.90;99.90;;;;;;5051336;28;20138;-75
2023/12/25 02:01:23;;;;;;;16.20;3.67;;;11.90;99.90;;;;;;5048832;28;20049;-76
2023/12/25 02:03:49;;;;;;;13.48;3.50;;;11.90;99.90;;;;;;5046953;28;20045;-75
2023/12/25 02:06:15;;;;;;;17.92;3.85;;;11.90;99.90;;;;;;5045429;28;20111;-75
2023/12/25 02:08:41;;;;;;;12.40;3.10;;;11.90;99.90;;;;;;5043669;28;21010;-75
2023/12/25 02:11:06;;;;;;;12.52;3.10;;;11.90;99.90;;;;;;5047716;28;20040;-76
2023/12/25 02:13:32;;;;;;;13.38;3.17;;;11.90;99.90;;;;;;5044835;28;20036;-75
2023/12/25 02:15:59;;;;;;;14.45;3.25;;;11.90;99.90;;;;;;5046779;28;20060;-76
2023/12/25 02:18:25;;;;;;;14.27;3.20;;;11.90;99.90;;;;;;5045689;28;20044;-76
2023/12/25 02:20:52;;;;;;;10.32;1.75;;;11.80;99.90;;;;;;5044397;28;20045;-75
2023/12/25 02:23:19;;;;;;;15.02;3.67;;;11.80;99.90;;;;;;5047911;28;20102;-76
2023/12/25 02:25:56;;;;;;;14.15;3.20;;;11.80;99.90;;;;;;5046755;28;20189;-75
2023/12/25 02:28:22;;;;;;;15.33;3.20;;;11.80;99.90;;;;;;5042612;28;20072;-76
2023/12/25 02:30:48;;;;;;;11.77;1.60;;;11.80;99.90;;;;;;5042329;28;20311;-76
2023/12/25 02:33:16;;;;;;;15.52;3.50;;;11.70;99.90;;;;;;5047789;28;20037;-76
2023/12/25 02:35:42;;;;;;;13.55;3.15;;;11.70;99.90;;;;;;5043159;28;20055;-76
2023/12/25 02:38:08;;;;;;;5.70;1.15;;;11.70;99.90;;;;;;5047985;28;20037;-76
2023/12/25 02:40:35;;;;;;;14.98;3.33;;;11.70;99.90;;;;;;5048640;28;20089;-75
2023/12/25 02:43:01;;;;;;;13.13;3.63;;;11.70;99.90;;;;;;5044685;28;20204;-75
2023/12/25 02:45:26;;;;;;;14.38;3.58;;;11.70;99.90;;;;;;5047326;28;20523;-75
2023/12/25 02:47:52;;;;;;;14.40;3.47;;;11.70;99.90;;;;;;5046057;28;20048;-75
2023/12/25 02:50:18;;;;;;;12.25;3.10;;;11.70;99.90;;;;;;5039566;28;20049;-75
2023/12/25 02:52:44;;;;;;;11.27;2.70;;;11.70;99.90;;;;;;5042350;28;20432;-76
2023/12/25 02:55:10;;;;;;;12.77;3.28;;;11.70;99.90;;;;;;5048775;28;20045;-75
2023/12/25 02:57:35;;;;;;;14.45;2.92;;;11.60;99.90;;;;;;5047853;28;20036;-76
2023/12/25 03:00:01;;;;;;;14.15;3.22;;;11.60;99.90;;;;;;5045873;28;20048;-76
2023/12/25 03:02:27;;;;;;;13.50;3.33;;;11.60;99.90;;;;;;5049135;28;20120;-75
2023/12/25 03:04:53;;;;;;;19.42;3.50;;;11.60;99.90;;;;;;5048744;28;20084;-76
2023/12/25 03:07:19;;;;;;;10.70;2.90;;;11.60;99.90;;;;;;5048003;28;20053;-75
2023/12/25 03:09:44;;;;;;;12.00;3.05;;;11.60;99.90;;;;;;5042366;28;20396;-76
2023/12/25 03:12:10;;;;;;;11.65;1.60;;;11.60;99.90;;;;;;5045746;28;20049;-76
2023/12/25 03:14:36;;;;;;;5.75;1.17;;;11.50;99.90;;;;;;5047600;28;20052;-76
2023/12/25 03:17:01;;;;;;;6.47;1.27;;;11.60;99.90;;;;;;5046308;28;20502;-75
2023/12/25 03:19:27;;;;;;;12.40;2.72;;;11.60;99.90;;;;;;5045751;28;20134;-75
2023/12/25 03:21:52;;;;;;;7.38;1.25;;;11.60;99.90;;;;;;5047503;28;20389;-75
2023/12/25 03:24:18;;;;;;;11.02;3.05;;;11.60;99.90;;;;;;5047150;28;20041;-76
2023/12/25 03:26:44;;;;;;;11.32;1.20;;;11.50;99.90;;;;;;5045142;28;20051;-76
2023/12/25 03:29:09;;;;;;;10.90;2.83;;;11.60;99.90;;;;;;5044953;28;20682;-75
2023/12/25 03:31:35;;;;;;;11.27;2.55;;;11.50;99.90;;;;;;5045506;28;20044;-75
2023/12/25 03:34:00;;;;;;;10.07;2.30;;;11.50;99.90;;;;;;5043635;28;20124;-76
2023/12/25 03:36:26;;;;;;;8.73;1.35;;;11.50;99.90;;;;;;5045986;28;20041;-75
2023/12/25 03:38:52;;;;;;;13.05;3.42;;;11.60;99.90;;;;;;5043547;28;20040;-76
2023/12/25 03:41:17;;;;;;;7.38;1.17;;;11.50;99.90;;;;;;5045027;28;21360;-76
2023/12/25 03:43:43;;;;;;;10.85;2.40;;;11.50;99.90;;;;;;5044738;28;20041;-75
2023/12/25 03:46:09;;;;;;;6.97;1.65;;;11.50;99.90;;;;;;5037985;28;20041;-75
2023/12/25 03:48:34;;;;;;;5.97;1.20;;;11.50;99.90;;;;;;5047886;28;20041;-76
2023/12/25 03:51:00;;;;;;;10.90;2.20;;;11.50;99.90;;;;;;5045552;28;20674;-75
2023/12/25 03:53:27;;;;;;;9.45;2.38;;;11.50;99.90;;;;;;5046139;28;20033;-75
2023/12/25 03:55:52;;;;;;;9.20;2.30;;;11.50;99.90;;;;;;5046551;28;20045;-75
2023/12/25 03:58:18;;;;;;;5.25;1.10;;;11.50;99.90;;;;;;5046022;28;20318;-76
2023/12/25 04:00:44;;;;;;;8.15;1.55;;;11.50;99.90;;;;;;5041482;28;20106;-76
2023/12/25 04:03:11;;;;;;;11.35;2.70;;;11.50;99.90;;;;;;5043747;28;20094;-75
2023/12/25 04:05:37;;;;;;;9.65;2.20;;;11.50;99.90;;;;;;5045997;28;20056;-76
2023/12/25 04:08:03;;;;;;;8.90;2.00;;;11.50;99.90;;;;;;5047521;28;20544;-75
2023/12/25 04:10:29;;;;;;;11.07;2.58;;;11.50;99.90;;;;;;5043989;28;20041;-75
2023/12/25 04:12:54;;;;;;;7.75;2.38;;;11.50;99.90;;;;;;5046795;28;20045;-75
2023/12/25 04:15:20;;;;;;;9.55;2.10;;;11.40;99.90;;;;;;5043253;28;20477;-76
2023/12/25 04:17:46;;;;;;;12.65;2.28;;;11.40;99.90;;;;;;5044186;28;20488;-75
2023/12/25 04:20:12;;;;;;;10.07;2.38;;;11.40;99.90;;;;;;5043973;28;20045;-75
2023/12/25 04:22:37;;;;;;;9.57;2.22;;;11.40;99.90;;;;;;5046335;28;20052;-75
2023/12/25 04:25:03;;;;;;;9.50;2.03;;;11.40;99.90;;;;;;5046102;28;20048;-75
2023/12/25 04:27:29;;;;;;;13.98;2.30;;;11.40;99.90;;;;;;5047372;28;20040;-75
2023/12/25 04:29:55;;;;;;;9.68;2.30;;;11.40;99.90;;;;;;5045024;28;20037;-75
2023/12/25 04:32:20;;;;;;;9.50;2.17;;;11.30;99.90;;;;;;5044876;28;20048;-76
2023/12/25 04:34:46;;;;;;;10.23;2.65;;;11.30;99.90;;;;;;5045491;28;20056;-75
2023/12/25 04:37:11;;;;;;;8.32;2.00;;;11.30;99.90;;;;;;5041890;28;23410;-76
2023/12/25 04:39:37;;;;;;;8.77;2.33;;;11.40;99.90;;;;;;5045149;28;20120;-76
2023/12/25 04:42:03;;;;;;;10.43;1.92;;;11.40;99.90;;;;;;5045381;28;20166;-75
2023/12/25 04:44:28;;;;;;;7.30;1.05;;;11.40;99.90;;;;;;5044297;28;20102;-76
2023/12/25 04:46:54;;;;;;;9.07;2.10;;;11.30;99.90;;;;;;5043100;28;20648;-76
2023/12/25 04:49:20;;;;;;;4.13;0.90;;;11.30;99.90;;;;;;5042276;28;20040;-75
2023/12/25 04:51:45;;;;;;;5.35;0.85;;;11.40;99.90;;;;;;5043256;28;20048;-75
2023/12/25 04:54:11;;;;;;;9.35;2.30;;;11.30;99.90;;;;;;5045769;28;20142;-76
2023/12/25 04:56:36;;;;;;;9.75;2.28;;;11.30;99.90;;;;;;5042148;28;20138;-75
2023/12/25 04:59:02;;;;;;;9.63;2.35;;;11.30;99.90;;;;;;5044637;28;20048;-76
2023/12/25 05:01:28;;;;;;;10.02;1.23;;;11.40;99.90;;;;;;5045127;28;20051;-76
2023/12/25 05:03:53;;;;;;;9.40;2.10;;;11.40;99.90;;;;;;5043090;28;20407;-76
2023/12/25 05:06:19;;;;;;;6.97;1.58;;;11.40;99.90;;;;;;5045156;28;20052;-76
2023/12/25 05:08:44;;;;;;;9.30;1.98;;;11.40;99.90;;;;;;5031853;28;20053;-75
2023/12/25 05:11:10;;;;;;;11.70;2.63;;;11.40;99.90;;;;;;5045093;28;20045;-75
2023/12/25 05:13:36;;;;;;;9.00;2.20;;;11.40;99.90;;;;;;5041793;28;20152;-75
2023/12/25 05:16:02;;;;;;;10.85;2.00;;;11.50;99.90;;;;;;5042921;28;20167;-75
2023/12/25 05:18:27;;;;;;;11.45;2.38;;;11.50;99.90;;;;;;5047272;28;20049;-75
2023/12/25 05:20:53;;;;;;;9.77;2.47;;;11.50;99.90;;;;;;5046043;28;20052;-76
2023/12/25 05:23:19;;;;;;;8.90;1.85;;;11.50;99.90;;;;;;5045433;28;20711;-75
2023/12/25 05:25:44;;;;;;;11.27;2.45;;;11.50;99.90;;;;;;5043613;28;20031;-76
2023/12/25 05:28:10;;;;;;;5.80;1.38;;;11.50;99.90;;;;;;5045004;28;20492;-76
2023/12/25 05:30:36;;;;;;;10.40;2.20;;;11.50;99.90;;;;;;5041888;28;20048;-75
2023/12/25 05:33:02;;;;;;;9.70;2.05;;;11.50;99.90;;;;;;5039725;28;20045;-76
2023/12/25 05:35:28;;;;;;;8.27;2.20;;;11.50;99.90;;;;;;5037422;28;20049;-75
2023/12/25 05:37:55;;;;;;;11.38;2.30;;;11.50;99.90;;;;;;5046107;28;20044;-75
2023/12/25 05:40:21;;;;;;;10.55;2.55;;;11.50;99.90;;;;;;5044425;28;20045;-76
2023/12/25 05:42:47;;;;;;;10.35;2.22;;;11.50;99.90;;;;;;5045054;28;20457;-75
2023/12/25 05:45:13;;;;;;;6.70;1.40;;;11.50;99.90;;;;;;5038649;28;20132;-76
2023/12/25 05:47:39;;;;;;;11.23;2.30;;;11.50;99.90;;;;;;5045952;28;20041;-76
2023/12/25 05:50:08;;;;;;;11.98;2.28;;;11.40;99.90;;;;;;5042530;28;20041;-76
2023/12/25 05:52:34;;;;;;;13.88;3.08;;;11.40;99.90;;;;;;5043956;28;20144;-76
2023/12/25 05:55:00;;;;;;;10.48;2.50;;;11.50;99.90;;;;;;5043461;28;20087;-75
2023/12/25 05:57:27;;;;;;;11.63;1.27;;;11.40;99.90;;;;;;5037783;28;20045;-76
2023/12/25 05:59:52;;;;;;;13.45;2.63;;;11.40;99.90;;;;;;5045593;28;20115;-76
2023/12/25 06:02:18;;;;;;;5.70;1.17;;;11.40;99.90;;;;;;5042927;28;20488;-76
2023/12/25 06:04:44;;;;;;;11.45;2.50;;;11.40;99.90;;;;;;5047513;28;20480;-75
2023/12/25 06:07:11;;;;;;;5.22;1.08;;;11.40;99.90;;;;;;5045286;28;20048;-76
2023/12/25 06:09:37;;;;;;;5.55;1.50;;;11.40;99.90;;;;;;5045900;28;20049;-76
2023/12/25 06:12:03;;;;;;;11.68;2.53;;;11.40;99.90;;;;;;5048798;28;20029;-76
2023/12/25 06:14:29;;;;;;;8.70;2.17;;;11.40;99.90;;;;;;5047925;28;20143;-76
2023/12/25 06:16:54;;;;;;;7.78;2.20;;;11.40;99.90;;;;;;5046349;28;20505;-76
2023/12/25 06:19:20;;;;;;;10.05;1.45;;;11.40;99.90;;;;;;5050022;28;20040;-76
2023/12/25 06:21:46;;;;;;;11.88;2.70;;;11.40;99.90;;;;;;5039376;28;20037;-76
2023/12/25 06:24:11;;;;;;;11.35;2.30;;;11.40;99.90;;;;;;5049038;28;20126;-76
2023/12/25 06:26:37;;;;;;;12.35;1.90;;;11.40;99.90;;;;;;5050538;28;20418;-77
2023/12/25 06:29:03;;;;;;;11.55;2.72;;;11.40;99.90;;;;;;5043546;28;20036;-76
2023/12/25 06:31:29;;;;;;;5.78;1.30;;;11.40;99.90;;;;;;5034918;28;20053;-76
2023/12/25 06:33:54;;;;;;;14.13;3.13;;;11.30;99.90;;;;;;5045491;28;20051;-77
2023/12/25 06:36:20;;;;;;;5.68;1.40;;;11.30;99.90;;;;;;5046145;28;20041;-76
2023/12/25 06:38:45;;;;;;;8.45;2.30;;;11.30;99.90;;;;;;5044536;28;20049;-77
2023/12/25 06:41:11;;;;;;;14.98;2.72;;;11.30;99.90;;;;;;5044777;28;20451;-77
2023/12/25 06:43:37;;;;;;;9.55;2.42;;;11.30;99.90;;;;;;5048757;28;20095;-77
2023/12/25 06:46:03;;;;;;;9.93;2.35;;;11.30;99.90;;;;;;5048731;28;20048;-77
2023/12/25 06:48:29;;;;;;;12.23;2.47;;;11.30;99.90;;;;;;5051431;28;20045;-77
2023/12/25 06:50:55;;;;;;;10.18;2.20;;;11.20;99.90;;;;;;5047426;28;20102;-77
2023/12/25 06:53:21;;;;;;;11.88;2.38;;;11.20;99.90;;;;;;5045439;28;20127;-77
2023/12/25 06:55:47;;;;;;;12.68;2.97;;;11.20;99.90;;;;;;5045903;28;20128;-77
2023/12/25 06:58:12;;;;;;;10.93;2.70;;;11.20;99.90;;;;;;5046039;28;20044;-77
2023/12/25 07:00:38;;;;;;;13.13;2.40;;;11.20;99.90;;;;;;5043573;28;20499;-77
2023/12/25 07:03:04;;;;;;;15.05;2.83;;;11.20;99.90;;;;;;5044948;28;20409;-77
2023/12/25 07:05:29;;;;;;;12.80;2.58;;;11.10;99.90;;;;;;5045204;28;20080;-77
2023/12/25 07:07:55;;;;;;;10.48;2.33;;;11.10;99.90;;;;;;5048372;28;20057;-77
2023/12/25 07:10:21;;;;;;;11.85;2.10;;;11.10;99.90;;;;;;5045678;28;20115;-77
2023/12/25 07:12:46;;;;;;;8.52;2.08;;;11.10;99.90;;;;;;5042567;28;20527;-77
2023/12/25 07:15:12;;;;;;;11.15;2.70;;;11.00;99.90;;;;;;5047458;28;20458;-77
2023/12/25 07:17:38;;;;;;;9.05;2.30;;;11.10;99.90;;;;;;5046502;28;20045;-77
2023/12/25 07:20:04;;;;;;;11.38;2.30;;;11.10;99.90;;;;;;5047369;28;20397;-77
2023/12/25 07:22:31;;;;;;;8.50;1.33;;;11.00;99.90;;;;;;5047812;28;20037;-77
2023/12/25 07:24:57;;;;;;;10.27;2.20;;;11.00;99.90;;;;;;5051256;28;20049;-77
2023/12/25 07:27:23;;;;;;;10.30;2.42;;;11.00;99.90;;;;;;5038013;28;20045;-77
2023/12/25 07:29:48;;;;;;;5.93;1.40;;;11.00;99.90;;;;;;5035245;28;20557;-76
2023/12/25 07:32:14;;;;;;;11.13;2.80;;;11.00;99.90;;;;;;5042782;28;20048;-77
2023/12/25 07:34:40;;;;;;;11.15;2.30;;;11.00;99.90;;;;;;5045539;28;20049;-77
2023/12/25 07:37:05;;;;;;;12.02;2.67;;;11.00;99.90;;;;;;5040525;28;20690;-77
2023/12/25 07:39:31;;;;;;;11.40;2.45;;;11.00;99.90;;;;;;5041674;28;20049;-77
2023/12/25 07:41:57;;;;;;;7.55;1.85;;;10.90;99.90;;;;;;5036971;28;20745;-76
2023/12/25 07:44:22;;;;;;;9.93;2.42;;;11.00;99.90;;;;;;5042839;28;20090;-75
2023/12/25 07:46:48;;;;;;;12.38;2.50;;;11.00;99.90;;;;;;5045202;28;20515;-76
2023/12/25 07:49:14;;;;;;;12.82;2.80;;;11.00;99.90;;;;;;5045680;28;20523;-76
2023/12/25 07:51:39;;;;;;;13.13;2.80;;;11.00;99.90;;;;;;5039406;28;20049;-74
2023/12/25 07:54:05;;;;;;;9.50;1.48;;;11.00;99.90;;;;;;5037683;28;20144;-76
2023/12/25 07:56:31;;;;;;;11.48;3.08;;;10.90;99.90;;;;;;5042997;28;20147;-75
2023/12/25 07:58:57;;;;;;;12.60;2.33;;;10.90;99.90;;;;;;5041776;28;20107;-77
2023/12/25 08:01:23;;;;;;;12.95;2.40;;;10.90;99.90;;;;;;5044270;28;20048;-75
2023/12/25 08:03:52;;;;;;;12.88;2.40;;;10.90;99.90;;;;;;5043035;28;20511;-76
2023/12/25 08:06:18;;;;;;;13.38;2.40;;;10.90;99.90;;;;;;5045921;28;20726;-76
2023/12/25 08:08:45;;;;;;;13.05;2.35;;;10.90;99.90;;;;;;5046575;28;20041;-78
2023/12/25 08:11:15;;;;;;;10.80;2.40;;;10.90;99.90;;;;;;5041313;28;20041;-76
2023/12/25 08:13:40;;;;;;;9.60;2.35;;;10.90;99.90;;;;;;5044503;28;20559;-74
2023/12/25 08:16:06;;;;;;;9.80;1.85;;;10.80;99.90;;;;;;5040960;28;20133;-75
2023/12/25 08:18:32;;;;;;;5.72;1.15;;;10.80;99.90;;;;;;5045085;28;20033;-76
2023/12/25 08:20:58;;;;;;;4.80;1.10;;;10.70;99.90;;;;;;5040791;28;21179;-76
2023/12/25 08:23:24;;;;;;;10.30;2.15;;;10.70;99.90;;;;;;5041990;28;20044;-75
2023/12/25 08:25:49;;;;;;;7.72;1.95;;;10.60;99.90;;;;;;5061130;28;20292;-77
2023/12/25 08:28:15;;;;;;;7.88;0.95;;;10.60;99.90;;;;;;5042846;28;20098;-74
2023/12/25 08:30:40;;;;;;;7.85;1.88;;;10.60;99.90;;;;;;5046531;28;20052;-76
2023/12/25 08:33:06;;;;;;;4.00;1.23;;;10.60;99.90;;;;;;5045498;28;20498;-75
2023/12/25 08:35:32;;;;;;;9.30;2.15;;;10.60;99.90;;;;;;5045757;28;20041;-74
2023/12/25 08:37:57;;;;;;;8.55;1.90;;;10.60;99.90;;;;;;5047688;28;20040;-74
2023/12/25 08:40:25;;;;;;;7.07;1.90;;;10.60;99.90;;;;;;5040968;28;20133;-74
2023/12/25 08:42:51;;;;;;;11.10;1.10;;;10.60;99.90;;;;;;5047950;28;20562;-74
2023/12/25 08:45:17;;;;;;;9.18;2.15;;;10.50;99.90;;;;;;5046537;28;20048;-75
2023/12/25 08:47:42;;;;;;;3.80;1.13;;;10.50;99.90;;;;;;5039726;28;20052;-75
2023/12/25 08:50:08;;;;;;;7.38;1.63;;;10.50;99.90;;;;;;5049829;28;20052;-76
2023/12/25 08:52:34;;;;;;;11.10;2.22;;;10.40;99.90;;;;;;5047185;28;20101;-74
2023/12/25 08:55:00;;;;;;;8.10;1.20;;;10.40;99.90;;;;;;5043167;28;20115;-75
2023/12/25 08:57:26;;;;;;;9.25;1.80;;;10.40;99.90;;;;;;5043787;28;20123;-75
2023/12/25 08:59:51;;;;;;;5.05;0.90;;;10.40;99.90;;;;;;5036711;28;20037;-75
2023/12/25 09:02:20;;;;;;;5.85;1.10;;;10.40;99.90;;;;;;5043099;28;20049;-75
2023/12/25 09:04:48;;;;;;;8.82;2.10;;;10.40;99.90;;;;;;5043118;28;20068;-75
2023/12/25 09:07:15;;;;;;;10.25;2.42;;;10.30;99.90;;;;;;5037596;28;20072;-75
2023/12/25 09:09:41;;;;;;;16.58;2.85;;;10.30;99.90;;;;;;5049824;28;20045;-77
2023/12/25 09:12:07;;;;;;;9.50;2.28;;;10.40;99.90;;;;;;5035638;28;20521;-78
2023/12/25 09:14:32;;;;;;;5.28;1.30;;;10.40;99.90;;;;;;5046961;28;20040;-79
2023/12/25 09:16:58;;;;;;;11.95;3.03;;;10.50;99.90;;;;;;5047502;28;20052;-75
2023/12/25 09:19:24;;;;;;;11.15;2.63;;;10.50;99.90;;;;;;5044740;28;20048;-74
2023/12/25 09:21:49;;;;;;;9.20;1.45;;;10.50;99.90;;;;;;5041550;28;20044;-77
2023/12/25 09:24:15;;;;;;;11.50;3.10;;;10.50;99.90;;;;;;5045553;28;20067;-79
2023/12/25 09:26:41;;;;;;;12.25;2.08;;;10.40;99.90;;;;;;5047211;28;20037;-75
2023/12/25 09:29:09;;;;;;;12.32;2.83;;;10.40;99.90;;;;;;5051753;28;20198;-74
2023/12/25 09:31:35;;;;;;;11.55;3.03;;;10.40;99.90;;;;;;5033248;28;20523;-74
2023/12/25 09:34:00;;;;;;;13.88;3.13;;;10.40;99.90;;;;;;5038303;28;20132;-74
2023/12/25 09:36:26;;;;;;;10.23;2.72;;;10.40;99.90;;;;;;5047650;28;20040;-74
2023/12/25 09:38:51;;;;;;;12.30;3.33;;;10.40;99.90;;;;;;5036370;28;20128;-75
2023/12/25 09:41:18;;;;;;;11.27;2.80;;;10.40;99.90;;;;;;5047830;28;20076;-75
2023/12/25 09:43:46;;;;;;;11.93;3.00;;;10.50;99.90;;;;;;5040236;28;20037;-74
2023/12/25 09:46:12;;;;;;;10.25;2.60;;;10.50;99.90;;;;;;5046433;28;20117;-74
2023/12/25 09:48:38;;;;;;;14.13;2.90;;;10.50;99.90;;;;;;5050792;28;20469;-75
2023/12/25 09:51:05;;;;;;;12.38;3.13;;;10.50;99.90;;;;;;5052333;28;20072;-74
2023/12/25 09:53:31;;;;;;;12.82;3.25;;;10.60;99.90;;;;;;5050681;28;20045;-74
2023/12/25 09:55:59;;;;;;;11.38;3.05;;;10.60;99.90;;;;;;5049782;28;20067;-74
2023/12/25 09:58:27;;;;;;;14.00;3.30;;;10.70;99.90;;;;;;5043391;28;20095;-74
2023/12/25 10:00:54;;;;;;;12.70;3.00;;;10.70;99.90;;;;;;5043644;28;20929;-74
2023/12/25 10:03:20;;;;;;;14.13;3.05;;;10.70;99.90;;;;;;5048474;28;20076;-74
2023/12/25 10:05:46;;;;;;;12.90;3.67;;;10.70;99.90;;;;;;5051847;28;20428;-74
2023/12/25 10:08:12;;;;;;;13.55;3.00;;;10.70;99.90;;;;;;5050855;28;20128;-73
2023/12/25 10:10:37;;;;;;;14.55;2.78;;;10.70;99.90;;;;;;5051423;28;20609;-75
2023/12/25 10:13:04;;;;;;;12.27;2.63;;;10.70;99.90;;;;;;5051501;28;20049;-76
2023/12/25 10:15:30;;;;;;;14.73;2.85;;;10.70;99.90;;;;;;5048819;28;20048;-76
2023/12/25 10:18:06;;;;;;;18.13;2.95;;;10.70;99.90;;;;;;5048015;28;20052;-78
2023/12/25 10:20:32;;;;;;;15.05;3.13;;;10.70;99.90;;;;;;5048349;28;20044;-75
2023/12/25 10:22:59;;;;;;;12.20;3.00;;;10.70;99.90;;;;;;5054877;28;20041;-74
2023/12/25 10:25:30;;;;;;;13.45;3.00;;;10.70;99.90;;;;;;5044780;28;20098;-75
2023/12/25 10:28:09;;;;;;;15.50;2.83;;;10.80;99.90;;;;;;5050356;28;20040;-73
2023/12/25 10:30:34;;;;;;;12.70;2.83;;;10.70;99.90;;;;;;5043170;28;20037;-74
2023/12/25 10:33:13;;;;;;;12.07;2.72;;;10.70;99.90;;;;;;5036498;28;20362;-73
2023/12/25 10:35:39;;;;;;;13.65;2.50;;;10.80;99.90;;;;;;5045221;28;20041;-73
2023/12/25 10:38:06;;;;;;;14.75;3.03;;;10.80;99.90;;;;;;5046438;28;20048;-74
2023/12/25 10:40:32;;;;;;;15.10;3.28;;;10.80;99.90;;;;;;5049725;28;20037;-74
2023/12/25 10:42:59;;;;;;;11.60;3.03;;;10.80;99.90;;;;;;5048690;28;20116;-73
2023/12/25 10:45:26;;;;;;;12.65;3.15;;;10.90;99.90;;;;;;5047772;28;20044;-74
2023/12/25 10:47:53;;;;;;;11.63;2.30;;;10.90;99.90;;;;;;5061371;28;20128;-74
2023/12/25 10:50:26;;;;;;;16.15;2.92;;;10.90;99.90;;;;;;5057924;28;20052;-74
2023/12/25 10:52:53;;;;;;;13.10;2.90;;;10.90;99.90;;;;;;5044032;28;20052;-75
2023/12/25 10:55:41;;;;;;;12.57;3.10;;;10.90;99.90;;;;;;5046668;28;20451;-74
2023/12/25 10:58:09;;;;;;;11.65;2.60;;;11.00;99.90;;;;;;5048122;28;20127;-74
2023/12/25 11:00:49;;;;;;;8.52;1.98;;;10.90;99.90;;;;;;5049635;28;20041;-74
2023/12/25 11:03:15;;;;;;;11.85;2.95;;;10.90;99.90;;;;;;5047488;28;20140;-73
2023/12/25 11:05:41;;;;;;;11.55;2.85;;;10.90;99.90;;;;;;5048914;28;20132;-74
2023/12/25 11:08:08;;;;;;;13.95;2.85;;;11.00;99.90;;;;;;5041539;28;20386;-74
2023/12/25 11:10:35;;;;;;;14.65;2.88;;;11.00;99.90;;;;;;5040997;28;21332;-73
2023/12/25 11:13:02;;;;;;;13.95;2.95;;;11.00;99.90;;;;;;5035963;28;20045;-74
2023/12/25 11:15:27;;;;;;;9.73;2.45;;;11.00;99.90;;;;;;5039289;28;20515;-74
2023/12/25 11:17:54;;;;;;;8.48;1.30;;;11.00;99.90;;;;;;5048442;28;20037;-75
2023/12/25 11:20:20;;;;;;;13.43;2.80;;;11.00;99.90;;;;;;5049398;28;20047;-74
2023/12/25 11:22:46;;;;;;;13.45;2.83;;;10.90;99.90;;;;;;5049588;28;20044;-75
2023/12/25 11:25:18;;;;;;;11.77;2.90;;;10.90;99.90;;;;;;5046913;28;20057;-74
2023/12/25 11:27:51;;;;;;;17.63;3.13;;;10.90;99.90;;;;;;5035078;28;20485;-80
2023/12/25 11:30:18;;;;;;;10.98;2.55;;;11.00;99.90;;;;;;5041717;28;20137;-77
2023/12/25 11:32:48;;;;;;;10.77;2.58;;;11.00;99.90;;;;;;5046750;28;20037;-77
2023/12/25 11:35:28;;;;;;;13.80;3.00;;;11.00;99.90;;;;;;5039296;28;20049;-77
2023/12/25 11:38:16;;;;;;;11.93;2.60;;;11.00;99.90;;;;;;5047378;28;20128;-76
2023/12/25 11:40:44;;;;;;;12.20;2.80;;;11.00;99.90;;;;;;5042049;28;20091;-79
2023/12/25 11:43:09;;;;;;;7.93;1.42;;;11.00;99.90;;;;;;5049506;28;20099;-79
2023/12/25 11:45:54;;;;;;;12.32;2.50;;;11.00;99.90;;;;;;5047671;28;20068;-83
2023/12/25 11:48:20;;;;;;;15.20;2.72;;;11.10;99.90;;;;;;5042300;28;20055;-75
2023/12/25 11:50:46;;;;;;;14.25;3.10;;;11.10;99.90;;;;;;5044989;28;20041;-78
2023/12/25 11:53:34;;;;;;;15.10;3.10;;;11.00;99.90;;;;;;5046569;28;20397;-77
2023/12/25 11:56:00;;;;;;;12.93;2.80;;;11.10;99.90;;;;;;5048661;28;20044;-77
2023/12/25 11:58:26;;;;;;;12.50;2.58;;;11.00;99.90;;;;;;5047001;28;20444;-79
2023/12/25 12:00:51;;;;;;;10.77;2.08;;;11.10;99.90;;;;;;5045133;28;20511;-76
2023/12/25 12:03:17;;;;;;;15.13;3.05;;;11.00;99.90;;;;;;5040711;28;20064;-77
2023/12/25 12:05:44;;;;;;;11.57;3.00;;;11.10;99.90;;;;;;5042507;28;20072;-78
2023/12/25 12:08:09;;;;;;;8.18;1.77;;;11.10;99.90;;;;;;5044113;28;20404;-76
2023/12/25 12:10:35;;;;;;;12.60;2.00;;;11.00;99.90;;;;;;5047461;28;20045;-77
2023/12/25 12:13:01;;;;;;;11.65;2.60;;;11.10;99.90;;;;;;5046765;28;20044;-78
2023/12/25 12:15:26;;;;;;;12.02;2.58;;;11.10;99.90;;;;;;5045428;28;20783;-76
2023/12/25 12:17:52;;;;;;;14.43;2.72;;;11.10;99.90;;;;;;5046673;28;20036;-75
2023/12/25 12:20:18;;;;;;;9.68;3.00;;;11.10;99.90;;;;;;5041825;28;20077;-76
2023/12/25 12:22:44;;;;;;;13.38;2.83;;;11.10;99.90;;;;;;5045772;28;20570;-75
2023/12/25 12:25:18;;;;;;;11.65;3.42;;;11.00;99.90;;;;;;5045086;28;20049;-77
2023/12/25 12:27:44;;;;;;;7.63;1.48;;;11.00;99.90;;;;;;5044670;28;20049;-75
2023/12/25 12:30:10;;;;;;;13.75;2.90;;;10.90;99.90;;;;;;5046177;28;20037;-75
2023/12/25 12:32:37;;;;;;;12.13;2.80;;;10.90;99.90;;;;;;5033655;28;20057;-75
2023/12/25 12:35:10;;;;;;;8.45;1.63;;;10.90;99.90;;;;;;5041849;28;20052;-75
2023/12/25 12:37:36;;;;;;;10.82;3.10;;;10.90;99.90;;;;;;5037836;28;20041;-74